sensor_id;sensor_type;location;lat;lon;timestamp;pressure;altitude;pressure_sealevel;temperature;humidity
36600;BME280;35385;55.668;37.508;2023-03-19T00:01:05;100611.91;;;-0.99;84.17
36600;BME280;35385;55.668;37.508;2023-03-19T00:02:06;100612.75;;;-0.97;84.75
36600;BME280;35385;55.668;37.508;2023-03-19T00:03:07;100621.34;;;-0.90;84.34
36600;BME280;35385;55.668;37.508;2023-03-19T00:04:07;100618.81;;;-0.95;84.70
36600;BME280;35385;55.668;37.508;2023-03-19T00:05:08;100628.50;;;-0.98;84.87
36600;BME280;35385;55.668;37.508;2023-03-19T00:06:09;100616.28;;;-0.99;84.60
36600;BME280;35385;55.668;37.508;2023-03-19T00:07:09;100604.31;;;-1.13;85.66
36600;BME280;35385;55.668;37.508;2023-03-19T00:08:10;100599.00;;;-1.10;86.12
36600;BME280;35385;55.668;37.508;2023-03-19T00:09:11;100611.00;;;-0.98;86.53
36600;BME280;35385;55.668;37.508;2023-03-19T00:10:11;100617.94;;;-0.95;86.21
36600;BME280;35385;55.668;37.508;2023-03-19T00:11:12;100595.44;;;-1.05;86.29
36600;BME280;35385;55.668;37.508;2023-03-19T00:12:13;100606.78;;;-1.05;86.08
36600;BME280;35385;55.668;37.508;2023-03-19T00:13:14;100610.31;;;-1.06;85.31
36600;BME280;35385;55.668;37.508;2023-03-19T00:14:15;100588.56;;;-1.13;86.12
36600;BME280;35385;55.668;37.508;2023-03-19T00:15:16;100542.09;;;-1.46;85.94
36600;BME280;35385;55.668;37.508;2023-03-19T00:16:16;100599.06;;;-1.13;87.20
36600;BME280;35385;55.668;37.508;2023-03-19T00:17:17;100524.69;;;-1.50;86.73
36600;BME280;35385;55.668;37.508;2023-03-19T00:18:18;100535.22;;;-1.53;86.89
36600;BME280;35385;55.668;37.508;2023-03-19T00:19:18;100609.50;;;-1.10;87.50
36600;BME280;35385;55.668;37.508;2023-03-19T00:20:19;100601.66;;;-1.11;86.77
36600;BME280;35385;55.668;37.508;2023-03-19T00:21:21;100584.22;;;-1.14;87.02
36600;BME280;35385;55.668;37.508;2023-03-19T00:22:21;100602.44;;;-1.06;86.35
36600;BME280;35385;55.668;37.508;2023-03-19T00:23:22;100600.69;;;-1.05;87.05
36600;BME280;35385;55.668;37.508;2023-03-19T00:24:22;100588.53;;;-1.10;86.88
36600;BME280;35385;55.668;37.508;2023-03-19T00:25:23;100598.19;;;-1.12;87.25
36600;BME280;35385;55.668;37.508;2023-03-19T00:26:23;100604.16;;;-1.03;88.38
36600;BME280;35385;55.668;37.508;2023-03-19T00:27:25;100573.88;;;-1.20;88.24
36600;BME280;35385;55.668;37.508;2023-03-19T00:28:26;100538.47;;;-1.40;87.37
36600;BME280;35385;55.668;37.508;2023-03-19T00:29:27;100580.75;;;-1.14;87.83
36600;BME280;35385;55.668;37.508;2023-03-19T00:30:27;100591.88;;;-1.01;88.71
36600;BME280;35385;55.668;37.508;2023-03-19T00:31:29;100604.16;;;-1.03;89.40
36600;BME280;35385;55.668;37.508;2023-03-19T00:32:29;100593.78;;;-1.10;89.33
36600;BME280;35385;55.668;37.508;2023-03-19T00:33:30;100580.03;;;-1.21;90.36
36600;BME280;35385;55.668;37.508;2023-03-19T00:34:31;100593.78;;;-1.10;90.07
36600;BME280;35385;55.668;37.508;2023-03-19T00:35:32;100585.03;;;-1.10;89.74
36600;BME280;35385;55.668;37.508;2023-03-19T00:36:33;100578.22;;;-1.19;89.40
36600;BME280;35385;55.668;37.508;2023-03-19T00:37:34;100591.97;;;-1.08;89.14
36600;BME280;35385;55.668;37.508;2023-03-19T00:38:34;100584.16;;;-1.11;89.70
36600;BME280;35385;55.668;37.508;2023-03-19T00:39:35;100585.94;;;-1.11;89.68
36600;BME280;35385;55.668;37.508;2023-03-19T00:40:36;100538.53;;;-1.44;89.84
36600;BME280;35385;55.668;37.508;2023-03-19T00:41:36;100562.50;;;-1.19;90.37
36600;BME280;35385;55.668;37.508;2023-03-19T00:42:37;100571.13;;;-1.14;91.16
36600;BME280;35385;55.668;37.508;2023-03-19T00:43:38;100565.69;;;-1.04;91.33
36600;BME280;35385;55.668;37.508;2023-03-19T00:44:39;100524.50;;;-1.41;91.50
36600;BME280;35385;55.668;37.508;2023-03-19T00:45:39;100585.84;;;-1.07;92.31
36600;BME280;35385;55.668;37.508;2023-03-19T00:46:41;100549.53;;;-1.26;93.51
36600;BME280;35385;55.668;37.508;2023-03-19T00:47:41;100590.19;;;-1.05;92.73
36600;BME280;35385;55.668;37.508;2023-03-19T00:48:43;100586.78;;;-1.11;92.53
36600;BME280;35385;55.668;37.508;2023-03-19T00:49:43;100573.03;;;-1.22;92.61
36600;BME280;35385;55.668;37.508;2023-03-19T00:50:44;100585.13;;;-1.15;92.73
36600;BME280;35385;55.668;37.508;2023-03-19T00:51:45;100585.97;;;-1.14;92.75
36600;BME280;35385;55.668;37.508;2023-03-19T00:52:45;100590.38;;;-1.15;93.38
36600;BME280;35385;55.668;37.508;2023-03-19T00:53:46;100576.56;;;-1.23;93.49
36600;BME280;35385;55.668;37.508;2023-03-19T00:54:47;100585.25;;;-1.21;92.96
36600;BME280;35385;55.668;37.508;2023-03-19T00:55:47;100557.44;;;-1.28;94.48
36600;BME280;35385;55.668;37.508;2023-03-19T00:56:48;100572.22;;;-1.24;93.75
36600;BME280;35385;55.668;37.508;2023-03-19T00:57:48;100579.06;;;-1.17;92.97
36600;BME280;35385;55.668;37.508;2023-03-19T00:58:49;100586.06;;;-1.17;92.61
36600;BME280;35385;55.668;37.508;2023-03-19T00:59:49;100583.34;;;-1.13;92.86
36600;BME280;35385;55.668;37.508;2023-03-19T01:00:53;100582.56;;;-1.16;92.25
36600;BME280;35385;55.668;37.508;2023-03-19T01:01:54;100576.56;;;-1.23;93.03
36600;BME280;35385;55.668;37.508;2023-03-19T01:02:55;100583.44;;;-1.17;94.62
36600;BME280;35385;55.668;37.508;2023-03-19T01:03:56;100573.97;;;-1.24;95.83
36600;BME280;35385;55.668;37.508;2023-03-19T01:04:57;100524.53;;;-1.43;96.43
36600;BME280;35385;55.668;37.508;2023-03-19T01:05:57;100568.47;;;-1.12;95.83
36600;BME280;35385;55.668;37.508;2023-03-19T01:06:58;100577.16;;;-1.10;95.04
36600;BME280;35385;55.668;37.508;2023-03-19T01:07:59;100565.09;;;-1.17;94.87
36600;BME280;35385;55.668;37.508;2023-03-19T01:09:00;100523.00;;;-1.54;93.71
36600;BME280;35385;55.668;37.508;2023-03-19T01:10:00;100579.09;;;-1.18;93.89
36600;BME280;35385;55.668;37.508;2023-03-19T01:11:10;100572.16;;;-1.21;95.11
36600;BME280;35385;55.668;37.508;2023-03-19T01:12:11;100569.63;;;-1.27;96.91
36600;BME280;35385;55.668;37.508;2023-03-19T01:13:12;100567.03;;;-1.27;96.47
36600;BME280;35385;55.668;37.508;2023-03-19T01:14:15;100578.28;;;-1.22;98.36
36600;BME280;35385;55.668;37.508;2023-03-19T01:15:17;100582.63;;;-1.19;97.80
36600;BME280;35385;55.668;37.508;2023-03-19T01:16:18;100512.56;;;-1.56;96.91
36600;BME280;35385;55.668;37.508;2023-03-19T01:17:18;100569.78;;;-1.33;96.65
36600;BME280;35385;55.668;37.508;2023-03-19T01:18:19;100560.22;;;-1.35;97.07
36600;BME280;35385;55.668;37.508;2023-03-19T01:19:20;100558.41;;;-1.32;97.07
36600;BME280;35385;55.668;37.508;2023-03-19T01:20:20;100433.25;;;-2.07;96.58
36600;BME280;35385;55.668;37.508;2023-03-19T01:21:23;100574.84;;;-1.25;96.46
36600;BME280;35385;55.668;37.508;2023-03-19T01:22:23;100564.44;;;-1.28;96.32
36600;BME280;35385;55.668;37.508;2023-03-19T01:23:25;100556.69;;;-1.34;96.49
36600;BME280;35385;55.668;37.508;2023-03-19T01:24:28;100571.31;;;-1.23;96.71
36600;BME280;35385;55.668;37.508;2023-03-19T01:25:29;100566.97;;;-1.24;96.65
36600;BME280;35385;55.668;37.508;2023-03-19T01:26:30;100570.44;;;-1.23;96.65
36600;BME280;35385;55.668;37.508;2023-03-19T01:27:31;100568.69;;;-1.23;97.04
36600;BME280;35385;55.668;37.508;2023-03-19T01:28:31;100571.13;;;-1.14;97.86
36600;BME280;35385;55.668;37.508;2023-03-19T01:29:32;100555.56;;;-1.21;97.86
36600;BME280;35385;55.668;37.508;2023-03-19T01:30:33;100534.88;;;-1.35;97.07
36600;BME280;35385;55.668;37.508;2023-03-19T01:31:35;100573.00;;;-1.19;96.62
36600;BME280;35385;55.668;37.508;2023-03-19T01:32:35;100564.09;;;-1.12;98.15
36600;BME280;35385;55.668;37.508;2023-03-19T01:33:36;100469.59;;;-1.90;97.03
36600;BME280;35385;55.668;37.508;2023-03-19T01:34:36;100547.22;;;-1.42;97.33
36600;BME280;35385;55.668;37.508;2023-03-19T01:35:37;100417.03;;;-2.27;98.17
36600;BME280;35385;55.668;37.508;2023-03-19T01:36:38;100567.13;;;-1.31;98.89
36600;BME280;35385;55.668;37.508;2023-03-19T01:37:39;100507.44;;;-1.60;98.51
36600;BME280;35385;55.668;37.508;2023-03-19T01:38:40;100572.19;;;-1.22;98.42
36600;BME280;35385;55.668;37.508;2023-03-19T01:39:40;100503.91;;;-1.59;97.93
36600;BME280;35385;55.668;37.508;2023-03-19T01:40:45;100510.84;;;-1.58;97.90
36600;BME280;35385;55.668;37.508;2023-03-19T01:41:47;100569.72;;;-1.30;97.74
36600;BME280;35385;55.668;37.508;2023-03-19T01:43:15;100567.84;;;-1.25;98.53
36600;BME280;35385;55.668;37.508;2023-03-19T01:44:32;100514.25;;;-1.53;99.19
36600;BME280;35385;55.668;37.508;2023-03-19T01:45:35;100529.75;;;-1.41;98.33
36600;BME280;35385;55.668;37.508;2023-03-19T01:46:37;100573.16;;;-1.28;98.27
36600;BME280;35385;55.668;37.508;2023-03-19T01:47:40;100500.56;;;-1.67;97.58
36600;BME280;35385;55.668;37.508;2023-03-19T01:48:54;100554.09;;;-1.36;98.42
36600;BME280;35385;55.668;37.508;2023-03-19T01:49:59;100552.44;;;-1.40;98.56
36600;BME280;35385;55.668;37.508;2023-03-19T01:51:00;100558.47;;;-1.35;98.57
36600;BME280;35385;55.668;37.508;2023-03-19T01:52:03;100554.19;;;-1.40;98.69
36600;BME280;35385;55.668;37.508;2023-03-19T01:53:04;100557.50;;;-1.31;99.74
36600;BME280;35385;55.668;37.508;2023-03-19T01:54:07;100534.06;;;-1.38;100.00
36600;BME280;35385;55.668;37.508;2023-03-19T01:55:10;100531.56;;;-1.45;100.00
36600;BME280;35385;55.668;37.508;2023-03-19T01:56:16;100539.47;;;-1.46;99.99
36600;BME280;35385;55.668;37.508;2023-03-19T01:57:20;100556.09;;;-1.47;99.54
36600;BME280;35385;55.668;37.508;2023-03-19T01:58:21;100546.56;;;-1.53;99.96
36600;BME280;35385;55.668;37.508;2023-03-19T01:59:26;100561.44;;;-1.53;100.00
36600;BME280;35385;55.668;37.508;2023-03-19T02:00:28;100554.47;;;-1.54;100.00
36600;BME280;35385;55.668;37.508;2023-03-19T02:01:31;100387.00;;;-2.53;100.00
36600;BME280;35385;55.668;37.508;2023-03-19T02:02:34;100557.91;;;-1.51;100.00
36600;BME280;35385;55.668;37.508;2023-03-19T02:03:37;100555.28;;;-1.52;99.80
36600;BME280;35385;55.668;37.508;2023-03-19T02:04:39;100551.09;;;-1.59;100.00
36600;BME280;35385;55.668;37.508;2023-03-19T02:05:43;100545.75;;;-1.56;100.00
36600;BME280;35385;55.668;37.508;2023-03-19T02:06:45;100542.16;;;-1.51;100.00
36600;BME280;35385;55.668;37.508;2023-03-19T02:07:46;100550.94;;;-1.53;100.00
36600;BME280;35385;55.668;37.508;2023-03-19T02:08:47;100531.00;;;-1.60;100.00
36600;BME280;35385;55.668;37.508;2023-03-19T02:09:49;100541.28;;;-1.50;100.00
36600;BME280;35385;55.668;37.508;2023-03-19T02:10:50;100540.50;;;-1.56;100.00
36600;BME280;35385;55.668;37.508;2023-03-19T02:11:53;100486.00;;;-1.82;99.92
36600;BME280;35385;55.668;37.508;2023-03-19T02:12:54;100536.94;;;-1.52;100.00
36600;BME280;35385;55.668;37.508;2023-03-19T02:13:55;100476.59;;;-1.91;100.00
36600;BME280;35385;55.668;37.508;2023-03-19T02:14:56;100537.91;;;-1.56;100.00
36600;BME280;35385;55.668;37.508;2023-03-19T02:15:57;100522.59;;;-1.76;100.00
36600;BME280;35385;55.668;37.508;2023-03-19T02:16:58;100475.84;;;-1.99;100.00
36600;BME280;35385;55.668;37.508;2023-03-19T02:17:59;100513.13;;;-1.85;100.00
36600;BME280;35385;55.668;37.508;2023-03-19T02:19:00;100529.38;;;-1.66;100.00
36600;BME280;35385;55.668;37.508;2023-03-19T02:21:07;100500.75;;;-1.76;100.00
36600;BME280;35385;55.668;37.508;2023-03-19T02:22:10;100523.25;;;-1.66;100.00
36600;BME280;35385;55.668;37.508;2023-03-19T02:23:33;100509.25;;;-1.65;100.00
36600;BME280;35385;55.668;37.508;2023-03-19T02:24:38;100531.97;;;-1.66;100.00
36600;BME280;35385;55.668;37.508;2023-03-19T02:25:53;100515.59;;;-1.75;100.00
36600;BME280;35385;55.668;37.508;2023-03-19T02:26:56;100524.31;;;-1.75;100.00
36600;BME280;35385;55.668;37.508;2023-03-19T02:27:57;100525.06;;;-1.70;100.00
36600;BME280;35385;55.668;37.508;2023-03-19T02:28:58;100515.66;;;-1.80;100.00
36600;BME280;35385;55.668;37.508;2023-03-19T02:29:59;100523.47;;;-1.77;100.00
36600;BME280;35385;55.668;37.508;2023-03-19T02:30:59;100477.53;;;-1.95;100.00
36600;BME280;35385;55.668;37.508;2023-03-19T02:32:00;100531.16;;;-1.68;100.00
36600;BME280;35385;55.668;37.508;2023-03-19T02:33:03;100471.28;;;-1.88;100.00
36600;BME280;35385;55.668;37.508;2023-03-19T02:35:25;100523.00;;;-1.54;100.00
36600;BME280;35385;55.668;37.508;2023-03-19T02:36:44;100541.09;;;-1.40;100.00
36600;BME280;35385;55.668;37.508;2023-03-19T02:37:46;100532.38;;;-1.43;100.00
36600;BME280;35385;55.668;37.508;2023-03-19T02:38:47;100521.13;;;-1.46;100.00
36600;BME280;35385;55.668;37.508;2023-03-19T02:39:56;100529.88;;;-1.47;100.00
36600;BME280;35385;55.668;37.508;2023-03-19T02:41:06;100528.19;;;-1.51;100.00
36600;BME280;35385;55.668;37.508;2023-03-19T02:42:09;100526.50;;;-1.54;100.00
36600;BME280;35385;55.668;37.508;2023-03-19T02:43:10;100509.25;;;-1.65;100.00
36600;BME280;35385;55.668;37.508;2023-03-19T02:44:11;100489.53;;;-1.85;100.00
36600;BME280;35385;55.668;37.508;2023-03-19T02:45:12;100519.69;;;-1.62;100.00
36600;BME280;35385;55.668;37.508;2023-03-19T02:46:13;100464.34;;;-1.89;100.00
36600;BME280;35385;55.668;37.508;2023-03-19T02:47:14;100459.09;;;-1.89;100.00
36600;BME280;35385;55.668;37.508;2023-03-19T02:48:15;100519.56;;;-1.56;100.00
36600;BME280;35385;55.668;37.508;2023-03-19T02:49:15;100442.81;;;-2.04;100.00
36600;BME280;35385;55.668;37.508;2023-03-19T02:50:16;100459.16;;;-1.93;100.00
36600;BME280;35385;55.668;37.508;2023-03-19T02:51:16;100519.50;;;-1.53;100.00
36600;BME280;35385;55.668;37.508;2023-03-19T02:52:19;100529.13;;;-1.54;100.00
36600;BME280;35385;55.668;37.508;2023-03-19T02:53:19;100531.00;;;-1.59;100.00
36600;BME280;35385;55.668;37.508;2023-03-19T02:54:20;100528.31;;;-1.57;100.00
36600;BME280;35385;55.668;37.508;2023-03-19T02:55:20;100515.25;;;-1.59;100.00
36600;BME280;35385;55.668;37.508;2023-03-19T02:56:21;100505.72;;;-1.63;100.00
36600;BME280;35385;55.668;37.508;2023-03-19T02:57:21;100502.31;;;-1.68;100.00
36600;BME280;35385;55.668;37.508;2023-03-19T02:58:22;100530.03;;;-1.56;100.00
36600;BME280;35385;55.668;37.508;2023-03-19T02:59:22;100518.84;;;-1.64;100.00
36600;BME280;35385;55.668;37.508;2023-03-19T03:00:23;100467.94;;;-1.96;100.00
36600;BME280;35385;55.668;37.508;2023-03-19T03:01:24;100501.69;;;-1.79;100.00
36600;BME280;35385;55.668;37.508;2023-03-19T03:02:25;100513.59;;;-1.63;100.00
36600;BME280;35385;55.668;37.508;2023-03-19T03:03:25;100516.09;;;-1.58;100.00
36600;BME280;35385;55.668;37.508;2023-03-19T03:04:27;100453.06;;;-1.94;100.00
36600;BME280;35385;55.668;37.508;2023-03-19T03:05:28;100512.47;;;-1.51;100.00
36600;BME280;35385;55.668;37.508;2023-03-19T03:06:28;100515.22;;;-1.57;100.00
36600;BME280;35385;55.668;37.508;2023-03-19T03:07:29;100503.09;;;-1.61;100.00
36600;BME280;35385;55.668;37.508;2023-03-19T03:08:30;100450.44;;;-1.94;100.00
36600;BME280;35385;55.668;37.508;2023-03-19T03:09:31;100507.34;;;-1.57;100.00
36600;BME280;35385;55.668;37.508;2023-03-19T03:10:32;100460.72;;;-1.85;100.00
36600;BME280;35385;55.668;37.508;2023-03-19T03:11:32;100508.97;;;-1.50;100.00
36600;BME280;35385;55.668;37.508;2023-03-19T03:12:33;100400.16;;;-2.11;100.00
36600;BME280;35385;55.668;37.508;2023-03-19T03:13:34;100432.97;;;-1.92;100.00
36600;BME280;35385;55.668;37.508;2023-03-19T03:14:35;100503.66;;;-1.47;100.00
36600;BME280;35385;55.668;37.508;2023-03-19T03:15:35;100509.75;;;-1.45;100.00
36600;BME280;35385;55.668;37.508;2023-03-19T03:16:36;100508.91;;;-1.47;100.00
36600;BME280;35385;55.668;37.508;2023-03-19T03:17:38;100506.97;;;-1.39;100.00
36600;BME280;35385;55.668;37.508;2023-03-19T03:18:39;100510.44;;;-1.37;100.00
36600;BME280;35385;55.668;37.508;2023-03-19T03:19:40;100497.41;;;-1.42;100.00
36600;BME280;35385;55.668;37.508;2023-03-19T03:20:41;100481.13;;;-1.56;100.00
36600;BME280;35385;55.668;37.508;2023-03-19T03:21:42;100516.78;;;-1.47;100.00
36600;BME280;35385;55.668;37.508;2023-03-19T03:22:43;100493.09;;;-1.44;100.00
36600;BME280;35385;55.668;37.508;2023-03-19T03:23:43;100500.81;;;-1.36;100.00
36600;BME280;35385;55.668;37.508;2023-03-19T03:24:44;100509.47;;;-1.31;100.00
36600;BME280;35385;55.668;37.508;2023-03-19T03:25:48;100451.00;;;-1.76;100.00
36600;BME280;35385;55.668;37.508;2023-03-19T03:26:49;100496.88;;;-1.57;100.00
36600;BME280;35385;55.668;37.508;2023-03-19T03:27:50;100440.63;;;-1.83;100.00
36600;BME280;35385;55.668;37.508;2023-03-19T03:28:51;100457.13;;;-1.77;100.00
36600;BME280;35385;55.668;37.508;2023-03-19T03:29:51;100503.06;;;-1.60;100.00
36600;BME280;35385;55.668;37.508;2023-03-19T03:30:58;100504.88;;;-1.65;100.00
36600;BME280;35385;55.668;37.508;2023-03-19T03:31:59;100457.16;;;-1.81;100.00
36600;BME280;35385;55.668;37.508;2023-03-19T03:32:59;100427.78;;;-1.95;100.00
36600;BME280;35385;55.668;37.508;2023-03-19T03:34:01;100495.88;;;-1.52;100.00
36600;BME280;35385;55.668;37.508;2023-03-19T03:35:02;100454.34;;;-1.71;100.00
36600;BME280;35385;55.668;37.508;2023-03-19T03:36:04;100502.66;;;-1.42;100.00
36600;BME280;35385;55.668;37.508;2023-03-19T03:37:04;100504.25;;;-1.33;100.00
36600;BME280;35385;55.668;37.508;2023-03-19T03:38:05;100502.47;;;-1.31;100.00
36600;BME280;35385;55.668;37.508;2023-03-19T03:39:06;100490.34;;;-1.36;100.00
36600;BME280;35385;55.668;37.508;2023-03-19T03:40:07;100430.03;;;-1.76;100.00
36600;BME280;35385;55.668;37.508;2023-03-19T03:41:08;100466.31;;;-1.58;100.00
36600;BME280;35385;55.668;37.508;2023-03-19T03:42:09;100489.13;;;-1.62;100.00
36600;BME280;35385;55.668;37.508;2023-03-19T03:43:09;100492.66;;;-1.64;100.00
36600;BME280;35385;55.668;37.508;2023-03-19T03:44:10;100502.88;;;-1.52;100.00
36600;BME280;35385;55.668;37.508;2023-03-19T03:45:10;100498.56;;;-1.55;100.00
36600;BME280;35385;55.668;37.508;2023-03-19T03:46:11;100447.00;;;-1.96;100.00
36600;BME280;35385;55.668;37.508;2023-03-19T03:47:13;100490.75;;;-1.58;100.00
36600;BME280;35385;55.668;37.508;2023-03-19T03:48:14;100457.06;;;-1.74;100.00
36600;BME280;35385;55.668;37.508;2023-03-19T03:49:15;100501.06;;;-1.49;100.00
36600;BME280;35385;55.668;37.508;2023-03-19T03:50:15;100499.56;;;-1.60;100.00
36600;BME280;35385;55.668;37.508;2023-03-19T03:51:17;100497.00;;;-1.63;100.00
36600;BME280;35385;55.668;37.508;2023-03-19T03:52:18;100480.25;;;-1.56;100.00
36600;BME280;35385;55.668;37.508;2023-03-19T03:53:19;100451.13;;;-1.84;100.00
36600;BME280;35385;55.668;37.508;2023-03-19T03:54:19;100429.69;;;-2.03;100.00
36600;BME280;35385;55.668;37.508;2023-03-19T03:55:21;100494.44;;;-1.66;100.00
36600;BME280;35385;55.668;37.508;2023-03-19T03:56:22;100484.16;;;-1.75;100.00
36600;BME280;35385;55.668;37.508;2023-03-19T03:57:23;100492.91;;;-1.76;100.00
36600;BME280;35385;55.668;37.508;2023-03-19T03:58:24;100486.94;;;-1.85;100.00
36600;BME280;35385;55.668;37.508;2023-03-19T03:59:25;100479.16;;;-1.88;100.00
36600;BME280;35385;55.668;37.508;2023-03-19T04:00:25;100493.75;;;-1.74;100.00
36600;BME280;35385;55.668;37.508;2023-03-19T04:01:26;100491.81;;;-1.66;100.00
36600;BME280;35385;55.668;37.508;2023-03-19T04:02:27;100488.31;;;-1.65;100.00
36600;BME280;35385;55.668;37.508;2023-03-19T04:03:27;100484.91;;;-1.70;100.00
36600;BME280;35385;55.668;37.508;2023-03-19T04:04:28;100490.09;;;-1.67;100.00
36600;BME280;35385;55.668;37.508;2023-03-19T04:05:30;100442.63;;;-1.95;100.00
36600;BME280;35385;55.668;37.508;2023-03-19T04:06:31;100496.13;;;-1.62;100.00
36600;BME280;35385;55.668;37.508;2023-03-19T04:07:32;100493.53;;;-1.65;100.00
36600;BME280;35385;55.668;37.508;2023-03-19T04:08:32;100493.53;;;-1.64;100.00
36600;BME280;35385;55.668;37.508;2023-03-19T04:09:33;100488.38;;;-1.68;100.00
36600;BME280;35385;55.668;37.508;2023-03-19T04:10:34;100423.78;;;-2.14;100.00
36600;BME280;35385;55.668;37.508;2023-03-19T04:11:36;100458.34;;;-1.97;100.00
36600;BME280;35385;55.668;37.508;2023-03-19T04:12:37;100485.28;;;-1.89;100.00
36600;BME280;35385;55.668;37.508;2023-03-19T04:13:38;100483.56;;;-1.90;100.00
36600;BME280;35385;55.668;37.508;2023-03-19T04:14:39;100464.72;;;-2.10;100.00
36600;BME280;35385;55.668;37.508;2023-03-19T04:15:43;100490.59;;;-1.93;100.00
36600;BME280;35385;55.668;37.508;2023-03-19T04:16:43;100462.66;;;-1.93;100.00
36600;BME280;35385;55.668;37.508;2023-03-19T04:17:45;100482.41;;;-1.75;100.00
36600;BME280;35385;55.668;37.508;2023-03-19T04:18:45;100481.59;;;-1.79;100.00
36600;BME280;35385;55.668;37.508;2023-03-19T04:19:46;100471.22;;;-1.85;100.00
36600;BME280;35385;55.668;37.508;2023-03-19T04:20:46;100473.84;;;-1.86;100.00
36600;BME280;35385;55.668;37.508;2023-03-19T04:21:48;100456.63;;;-1.98;100.00
36600;BME280;35385;55.668;37.508;2023-03-19T04:22:48;100480.75;;;-1.81;100.00
36600;BME280;35385;55.668;37.508;2023-03-19T04:23:49;100408.34;;;-2.29;100.00
36600;BME280;35385;55.668;37.508;2023-03-19T04:24:49;100474.06;;;-1.97;100.00
36600;BME280;35385;55.668;37.508;2023-03-19T04:25:57;100471.28;;;-1.88;100.00
36600;BME280;35385;55.668;37.508;2023-03-19T04:26:59;100471.41;;;-1.94;100.00
36600;BME280;35385;55.668;37.508;2023-03-19T04:28:00;100474.72;;;-1.86;100.00
36600;BME280;35385;55.668;37.508;2023-03-19T04:29:04;100430.38;;;-1.95;100.00
36600;BME280;35385;55.668;37.508;2023-03-19T04:30:04;100476.84;;;-1.60;100.00
36600;BME280;35385;55.668;37.508;2023-03-19T04:31:06;100477.53;;;-1.50;100.00
36600;BME280;35385;55.668;37.508;2023-03-19T04:32:07;100476.38;;;-1.37;100.00
36600;BME280;35385;55.668;37.508;2023-03-19T04:33:07;100454.75;;;-1.47;100.00
36600;BME280;35385;55.668;37.508;2023-03-19T04:34:08;100422.78;;;-1.64;100.00
36600;BME280;35385;55.668;37.508;2023-03-19T04:35:15;100478.00;;;-1.31;100.00
36600;BME280;35385;55.668;37.508;2023-03-19T04:36:17;100473.75;;;-1.37;100.00
36600;BME280;35385;55.668;37.508;2023-03-19T04:37:18;100467.97;;;-1.54;100.00
36600;BME280;35385;55.668;37.508;2023-03-19T04:38:18;100473.88;;;-1.43;100.00
36600;BME280;35385;55.668;37.508;2023-03-19T04:39:22;100468.56;;;-1.40;100.00
36600;BME280;35385;55.668;37.508;2023-03-19T04:40:23;100471.31;;;-1.45;100.00
36600;BME280;35385;55.668;37.508;2023-03-19T04:41:24;100481.53;;;-1.32;100.00
36600;BME280;35385;55.668;37.508;2023-03-19T04:42:25;100473.19;;;-1.13;100.00
36600;BME280;35385;55.668;37.508;2023-03-19T04:43:26;100475.25;;;-0.87;100.00
36600;BME280;35385;55.668;37.508;2023-03-19T04:44:26;100478.47;;;-0.74;100.00
36600;BME280;35385;55.668;37.508;2023-03-19T04:45:27;100473.09;;;-1.07;100.00
36600;BME280;35385;55.668;37.508;2023-03-19T04:46:28;100469.09;;;-1.24;100.00
36600;BME280;35385;55.668;37.508;2023-03-19T04:47:28;100467.31;;;-1.22;100.00
36600;BME280;35385;55.668;37.508;2023-03-19T04:48:29;100473.53;;;-1.28;100.00
36600;BME280;35385;55.668;37.508;2023-03-19T04:49:29;100473.63;;;-1.31;100.00
36600;BME280;35385;55.668;37.508;2023-03-19T04:50:36;100480.50;;;-1.27;100.00
36600;BME280;35385;55.668;37.508;2023-03-19T04:51:40;100474.53;;;-1.32;100.00
36600;BME280;35385;55.668;37.508;2023-03-19T04:52:41;100468.56;;;-1.40;100.00
36600;BME280;35385;55.668;37.508;2023-03-19T04:53:41;100470.06;;;-1.28;100.00
36600;BME280;35385;55.668;37.508;2023-03-19T04:54:42;100446.75;;;-1.42;100.00
36600;BME280;35385;55.668;37.508;2023-03-19T04:55:43;100473.53;;;-1.28;100.00
36600;BME280;35385;55.668;37.508;2023-03-19T04:56:43;100465.84;;;-1.35;100.00
36600;BME280;35385;55.668;37.508;2023-03-19T04:57:44;100471.91;;;-1.32;100.00
36600;BME280;35385;55.668;37.508;2023-03-19T04:58:45;100444.28;;;-1.48;100.00
36600;BME280;35385;55.668;37.508;2023-03-19T04:59:45;100417.66;;;-1.70;100.00
36600;BME280;35385;55.668;37.508;2023-03-19T05:00:47;100460.00;;;-1.48;100.00
36600;BME280;35385;55.668;37.508;2023-03-19T05:01:47;100470.56;;;-1.53;100.00
36600;BME280;35385;55.668;37.508;2023-03-19T05:02:48;100393.63;;;-1.89;100.00
36600;BME280;35385;55.668;37.508;2023-03-19T05:03:48;100426.41;;;-1.71;100.00
36600;BME280;35385;55.668;37.508;2023-03-19T05:04:49;100459.19;;;-1.52;100.00
36600;BME280;35385;55.668;37.508;2023-03-19T05:05:52;100461.66;;;-1.44;100.00
36600;BME280;35385;55.668;37.508;2023-03-19T05:06:53;100467.81;;;-1.45;100.00
36600;BME280;35385;55.668;37.508;2023-03-19T05:07:53;100448.63;;;-1.47;100.00
36600;BME280;35385;55.668;37.508;2023-03-19T05:08:57;100441.75;;;-1.53;100.00
36600;BME280;35385;55.668;37.508;2023-03-19T05:09:57;100461.63;;;-1.43;100.00
36600;BME280;35385;55.668;37.508;2023-03-19T05:10:58;100463.47;;;-1.46;100.00
36600;BME280;35385;55.668;37.508;2023-03-19T05:11:58;100474.84;;;-1.47;100.00
36600;BME280;35385;55.668;37.508;2023-03-19T05:12:59;100472.94;;;-1.40;100.00
36600;BME280;35385;55.668;37.508;2023-03-19T05:14:00;100395.13;;;-1.77;100.00
36600;BME280;35385;55.668;37.508;2023-03-19T05:15:01;100471.97;;;-1.35;100.00
36600;BME280;35385;55.668;37.508;2023-03-19T05:16:01;100474.53;;;-1.32;100.00
36600;BME280;35385;55.668;37.508;2023-03-19T05:17:03;100395.22;;;-1.83;100.00
36600;BME280;35385;55.668;37.508;2023-03-19T05:18:03;100385.50;;;-1.76;100.00